X  Blizu METAR Podaci o vazduhoplovstvu     KDNN Dalton Municipal Airport
Temperatura
26°C Temperatura
20°C Tačka Rose
70% Vlaga



Vetar
5 KM/S
3 MPS
1 M/S
3 Čvorovi



360°
S
Trenutna situacija

Vedro Vedro
Vazdušni pritisak 1014.56 (hPa) - 29.96 (inHg)
Vidljivost 10 (Milje) - 16.1 (km)
Aerodrom
Aerodromski kod. KDNN

Lokacija: Dalton Municipal Airport
Udaljenost: 34 (km)

Metar:
KDNN 130055Z AUTO 36003KT 10SM CLR 26/20 A2996 RMK AO2 T02610201

Vreme: 06-12-2024 20:55 EDT